Time;durP1;ratioP1;P1;durP2;ratioP2;P2;SDS_P1;SDS_P2;PMS_P1;PMS_P2;Temp;Humidity;BMP_temperature;BMP_pressure;BME280_temperature;BME280_humidity;BME280_pressure;Samples;Min_cycle;Max_cycle;Signal;HPM_P1;HPM_P2
2021/11/22 00:01:34;;;;;;;34.30;31.00;;;6.20;89.40;;;;;;5010272;28;20305;-72
2021/11/22 00:04:01;;;;;;;34.10;31.05;;;6.10;90.00;;;;;;5010945;28;20306;-72
2021/11/22 00:06:28;;;;;;;34.40;31.48;;;6.10;89.90;;;;;;5005900;28;21220;-72
2021/11/22 00:08:56;;;;;;;35.05;31.88;;;6.00;90.60;;;;;;5011383;28;20773;-72
2021/11/22 00:11:23;;;;;;;34.40;31.50;;;6.10;90.40;;;;;;5009425;28;20623;-72
2021/11/22 00:13:50;;;;;;;33.72;30.92;;;6.10;90.30;;;;;;5010615;28;20249;-72
2021/11/22 00:16:17;;;;;;;34.67;31.88;;;6.20;90.10;;;;;;5008827;28;20309;-72
2021/11/22 00:18:44;;;;;;;32.22;29.08;;;6.20;89.90;;;;;;5010834;28;20198;-72
2021/11/22 00:21:11;;;;;;;33.08;30.48;;;6.20;90.10;;;;;;5009496;28;20232;-72
2021/11/22 00:23:38;;;;;;;32.83;30.05;;;6.20;90.40;;;;;;5010092;28;20296;-72
2021/11/22 00:26:07;;;;;;;34.10;31.10;;;6.20;90.50;;;;;;5008460;28;20953;-72
2021/11/22 00:28:34;;;;;;;33.70;30.85;;;6.10;90.40;;;;;;5002371;28;20206;-72
2021/11/22 00:31:01;;;;;;;35.03;31.85;;;6.10;90.70;;;;;;5008946;28;20191;-72
2021/11/22 00:33:27;;;;;;;35.55;32.42;;;6.10;90.80;;;;;;4997057;28;20640;-72
2021/11/22 00:35:55;;;;;;;34.67;31.45;;;6.20;90.30;;;;;;5011119;28;20671;-72
2021/11/22 00:38:22;;;;;;;34.15;31.25;;;6.20;90.30;;;;;;5009682;28;20244;-72
2021/11/22 00:40:49;;;;;;;33.85;30.75;;;6.20;90.80;;;;;;5012353;28;20568;-73
2021/11/22 00:43:21;;;;;;;35.55;32.30;;;6.20;90.30;;;;;;5007921;28;20241;-73
2021/11/22 00:45:50;;;;;;;34.25;31.23;;;6.20;90.40;;;;;;5006916;28;20202;-73
2021/11/22 00:48:20;;;;;;;35.35;32.25;;;6.20;90.40;;;;;;5008069;28;20285;-72
2021/11/22 00:50:47;;;;;;;35.40;32.13;;;6.10;90.30;;;;;;5010671;28;20683;-72
2021/11/22 00:53:14;;;;;;;37.10;33.70;;;6.20;90.40;;;;;;5007819;28;20772;-72
2021/11/22 00:55:41;;;;;;;36.38;33.08;;;6.20;90.30;;;;;;5010057;28;20674;-72
2021/11/22 00:58:08;;;;;;;35.05;31.77;;;6.20;89.90;;;;;;5008711;28;20699;-72
2021/11/22 01:00:37;;;;;;;35.72;32.65;;;6.10;90.30;;;;;;5009191;28;20268;-72
2021/11/22 01:03:04;;;;;;;37.50;33.90;;;6.30;90.20;;;;;;5008369;28;20305;-72
2021/11/22 01:05:31;;;;;;;35.55;32.45;;;6.40;89.80;;;;;;5010119;28;20289;-72
2021/11/22 01:07:58;;;;;;;35.72;32.25;;;6.30;90.00;;;;;;5007870;28;20205;-72
2021/11/22 01:10:25;;;;;;;36.83;33.55;;;6.30;90.10;;;;;;5010697;28;20620;-72
2021/11/22 01:12:53;;;;;;;37.28;33.88;;;6.30;89.60;;;;;;5005775;28;20260;-72
2021/11/22 01:15:23;;;;;;;37.08;33.47;;;6.20;89.90;;;;;;5009361;28;20252;-72
2021/11/22 01:17:55;;;;;;;38.13;34.42;;;6.20;90.00;;;;;;5008589;28;20206;-71
2021/11/22 01:20:29;;;;;;;36.78;33.20;;;6.20;90.00;;;;;;5006645;28;20309;-71
2021/11/22 01:22:57;;;;;;;39.13;35.05;;;6.20;90.10;;;;;;5007552;28;20772;-71
2021/11/22 01:25:24;;;;;;;35.25;31.75;;;6.30;89.70;;;;;;5010227;28;20245;-71
2021/11/22 01:27:52;;;;;;;38.75;34.70;;;6.40;89.30;;;;;;5008340;28;20206;-71
2021/11/22 01:30:20;;;;;;;39.10;35.30;;;6.50;88.60;;;;;;5010282;28;20198;-72
2021/11/22 01:32:48;;;;;;;38.67;34.53;;;6.50;88.40;;;;;;5006864;28;20288;-72
2021/11/22 01:35:17;;;;;;;39.05;35.42;;;6.40;88.60;;;;;;5007868;28;20202;-72
2021/11/22 01:37:46;;;;;;;37.35;33.47;;;6.30;89.20;;;;;;5008702;28;20249;-71
2021/11/22 01:40:15;;;;;;;38.83;34.90;;;6.20;89.90;;;;;;5009707;28;20668;-71
2021/11/22 01:42:42;;;;;;;40.05;35.80;;;6.20;90.20;;;;;;5007515;28;20198;-71
2021/11/22 01:45:12;;;;;;;40.78;35.10;;;6.10;90.40;;;;;;5004152;28;20280;-71
2021/11/22 01:47:40;;;;;;;38.58;34.70;;;6.10;90.50;;;;;;5008009;28;20297;-71
2021/11/22 01:50:10;;;;;;;40.55;36.55;;;6.00;90.80;;;;;;5010039;28;20289;-72
2021/11/22 01:52:40;;;;;;;37.38;33.55;;;6.20;90.30;;;;;;5007929;28;20234;-71
2021/11/22 01:55:07;;;;;;;42.33;36.33;;;6.30;89.50;;;;;;5006341;28;20198;-71
2021/11/22 01:57:35;;;;;;;38.10;34.10;;;6.40;89.10;;;;;;5007855;28;20626;-71
2021/11/22 02:00:04;;;;;;;41.05;36.67;;;6.30;89.50;;;;;;5009808;28;20205;-71
2021/11/22 02:02:31;;;;;;;39.95;35.22;;;6.30;89.50;;;;;;5004903;28;20301;-71
2021/11/22 02:04:57;;;;;;;38.85;33.45;;;6.30;89.50;;;;;;5007803;28;20302;-71
2021/11/22 02:07:25;;;;;;;37.15;33.67;;;6.30;89.10;;;;;;5007263;28;20269;-71
2021/11/22 02:09:53;;;;;;;38.55;34.75;;;6.30;89.60;;;;;;5008698;28;20552;-71
2021/11/22 02:12:20;;;;;;;39.28;35.17;;;6.30;89.70;;;;;;5007771;28;20198;-73
2021/11/22 02:14:47;;;;;;;39.83;35.72;;;6.20;89.90;;;;;;5008701;28;20260;-71
2021/11/22 02:17:15;;;;;;;38.63;34.72;;;6.10;90.50;;;;;;5006831;28;20198;-71
2021/11/22 02:19:55;;;;;;;38.30;34.55;;;6.00;90.90;;;;;;5008733;28;20260;-71
2021/11/22 02:22:22;;;;;;;38.13;34.17;;;5.90;91.60;;;;;;5000023;28;20739;-72
2021/11/22 02:24:49;;;;;;;43.00;35.20;;;5.90;91.80;;;;;;5009317;28;20253;-72
2021/11/22 02:27:16;;;;;;;40.20;36.40;;;5.80;92.20;;;;;;5005926;28;20289;-71
2021/11/22 02:29:44;;;;;;;39.05;35.00;;;5.80;92.30;;;;;;5008223;28;20743;-71
2021/11/22 02:32:11;;;;;;;38.35;34.58;;;5.80;92.60;;;;;;5006810;28;20197;-71
2021/11/22 02:34:39;;;;;;;39.00;34.90;;;5.70;92.80;;;;;;5008365;28;20264;-71
2021/11/22 02:37:08;;;;;;;39.17;35.13;;;5.70;92.90;;;;;;5007705;28;20232;-71
2021/11/22 02:39:35;;;;;;;38.78;34.90;;;5.70;93.00;;;;;;5008659;28;20877;-71
2021/11/22 02:42:02;;;;;;;40.15;36.00;;;5.80;92.90;;;;;;5007435;28;20304;-71
2021/11/22 02:44:29;;;;;;;38.67;34.78;;;5.80;92.90;;;;;;5006921;28;20304;-71
2021/11/22 02:46:56;;;;;;;40.00;35.83;;;5.80;92.90;;;;;;5007495;28;20256;-71
2021/11/22 02:49:23;;;;;;;38.70;34.55;;;5.80;92.80;;;;;;5008558;28;20232;-71
2021/11/22 02:51:51;;;;;;;39.10;35.30;;;5.80;92.70;;;;;;5006495;28;20229;-71
2021/11/22 02:54:19;;;;;;;37.03;33.42;;;5.80;92.60;;;;;;5007834;28;20336;-71
2021/11/22 02:56:46;;;;;;;39.75;35.90;;;5.80;92.80;;;;;;5007504;28;20237;-71
2021/11/22 02:59:13;;;;;;;39.65;35.67;;;5.80;92.90;;;;;;5008170;28;20284;-72
2021/11/22 03:01:41;;;;;;;42.03;37.75;;;5.90;92.80;;;;;;5005645;28;20297;-72
2021/11/22 03:04:11;;;;;;;40.90;36.40;;;5.90;92.70;;;;;;5007437;28;20323;-72
2021/11/22 03:06:38;;;;;;;40.58;36.42;;;5.90;92.60;;;;;;5007297;28;20568;-72
2021/11/22 03:09:06;;;;;;;42.38;37.92;;;5.90;92.60;;;;;;5007359;28;20229;-72
2021/11/22 03:11:34;;;;;;;40.78;36.30;;;5.90;92.60;;;;;;5009698;28;20707;-72
2021/11/22 03:14:02;;;;;;;40.78;36.60;;;5.90;92.50;;;;;;5012191;28;20756;-72
2021/11/22 03:16:30;;;;;;;41.20;36.90;;;5.80;93.00;;;;;;5009869;28;20237;-72
2021/11/22 03:18:57;;;;;;;39.92;35.78;;;5.90;93.10;;;;;;5011572;28;20600;-72
2021/11/22 03:21:24;;;;;;;41.75;37.25;;;5.90;93.10;;;;;;5010314;28;20321;-72
2021/11/22 03:23:51;;;;;;;41.85;35.83;;;5.90;93.00;;;;;;5011381;28;20612;-72
2021/11/22 03:26:18;;;;;;;43.35;38.97;;;6.00;92.80;;;;;;5010520;28;20207;-72
2021/11/22 03:28:47;;;;;;;38.80;35.00;;;5.90;92.90;;;;;;5011035;28;20286;-72
2021/11/22 03:31:14;;;;;;;41.25;37.00;;;6.00;92.80;;;;;;5008865;28;20200;-72
2021/11/22 03:33:44;;;;;;;40.95;36.70;;;6.10;92.60;;;;;;5010145;28;20253;-72
2021/11/22 03:36:12;;;;;;;40.13;36.00;;;6.00;92.50;;;;;;5009723;28;20225;-72
2021/11/22 03:38:39;;;;;;;39.42;35.42;;;6.00;92.90;;;;;;5012149;28;20289;-72
2021/11/22 03:41:12;;;;;;;42.78;38.45;;;6.10;93.00;;;;;;5010247;28;20620;-72
2021/11/22 03:43:46;;;;;;;39.33;35.53;;;6.10;92.60;;;;;;5009229;28;20224;-72
2021/11/22 03:46:15;;;;;;;42.33;38.03;;;6.20;92.00;;;;;;5008992;28;20197;-72
2021/11/22 03:48:43;;;;;;;39.10;35.15;;;6.20;92.30;;;;;;5011502;28;20826;-72
2021/11/22 03:51:10;;;;;;;40.33;36.13;;;6.00;92.80;;;;;;5010497;28;20285;-72
2021/11/22 03:53:37;;;;;;;42.20;37.78;;;5.80;93.70;;;;;;5017286;28;20221;-71
2021/11/22 03:56:04;;;;;;;40.50;36.45;;;5.80;94.30;;;;;;5010218;28;20309;-72
2021/11/22 03:58:31;;;;;;;39.40;35.33;;;5.80;94.30;;;;;;5010971;28;20234;-72
2021/11/22 04:00:58;;;;;;;40.83;36.47;;;5.90;94.30;;;;;;5010054;28;20301;-72
2021/11/22 04:03:28;;;;;;;42.22;37.85;;;5.90;93.90;;;;;;5009405;28;20309;-72
2021/11/22 04:05:55;;;;;;;42.67;37.75;;;5.90;94.40;;;;;;5011595;28;20625;-72
2021/11/22 04:08:22;;;;;;;40.53;36.20;;;5.90;94.30;;;;;;5009558;28;20202;-72
2021/11/22 04:10:49;;;;;;;39.60;35.30;;;6.00;94.40;;;;;;5010762;28;20206;-72
2021/11/22 04:13:17;;;;;;;41.53;37.65;;;5.90;94.60;;;;;;5009627;28;20309;-71
2021/11/22 04:15:44;;;;;;;37.45;33.85;;;5.90;94.90;;;;;;5011112;28;20202;-71
2021/11/22 04:18:12;;;;;;;33.20;29.88;;;5.90;94.40;;;;;;5008933;28;20624;-71
2021/11/22 04:20:42;;;;;;;35.45;32.15;;;5.80;94.40;;;;;;5011054;28;20660;-71
2021/11/22 04:23:10;;;;;;;35.97;32.53;;;5.80;94.90;;;;;;5009031;28;20328;-71
2021/11/22 04:25:39;;;;;;;36.50;33.05;;;5.90;94.60;;;;;;5010772;28;20549;-71
2021/11/22 04:28:07;;;;;;;37.15;33.50;;;5.80;94.80;;;;;;5009472;28;20202;-71
2021/11/22 04:30:35;;;;;;;37.85;34.25;;;5.80;94.90;;;;;;5010152;28;20212;-71
2021/11/22 04:33:02;;;;;;;36.55;33.22;;;5.80;94.90;;;;;;5007599;28;20221;-71
2021/11/22 04:35:29;;;;;;;36.80;33.30;;;5.80;95.30;;;;;;5011139;28;20293;-71
2021/11/22 04:37:58;;;;;;;33.90;30.95;;;5.80;94.90;;;;;;5009098;28;20234;-71
2021/11/22 04:40:25;;;;;;;34.47;31.30;;;5.80;94.80;;;;;;5010732;28;20228;-72
2021/11/22 04:42:53;;;;;;;34.08;30.88;;;5.80;94.90;;;;;;5009421;28;20320;-71
2021/11/22 04:45:22;;;;;;;32.95;29.85;;;5.70;95.00;;;;;;5009433;28;20277;-71
2021/11/22 04:47:50;;;;;;;36.03;33.00;;;5.70;95.00;;;;;;5008344;28;20866;-71
2021/11/22 04:50:18;;;;;;;34.50;31.35;;;5.70;95.30;;;;;;5011062;28;20238;-71
2021/11/22 04:52:48;;;;;;;32.63;29.55;;;5.70;95.40;;;;;;5008035;28;20284;-71
2021/11/22 04:55:17;;;;;;;35.10;31.80;;;5.70;95.20;;;;;;5010075;28;20293;-71
2021/11/22 04:57:45;;;;;;;33.53;30.30;;;5.70;95.00;;;;;;5009553;28;20292;-71
2021/11/22 05:00:15;;;;;;;34.90;31.83;;;5.70;95.00;;;;;;5009911;28;20301;-71
2021/11/22 05:02:45;;;;;;;32.00;29.20;;;5.70;95.20;;;;;;5002372;28;20309;-71
2021/11/22 05:05:12;;;;;;;35.13;32.22;;;5.80;95.20;;;;;;5010456;28;20911;-71
2021/11/22 05:07:39;;;;;;;32.97;29.98;;;5.80;94.90;;;;;;5008467;28;20222;-72
2021/11/22 05:10:08;;;;;;;33.70;30.75;;;5.90;94.90;;;;;;4998564;28;20241;-71
2021/11/22 05:12:37;;;;;;;34.25;31.10;;;5.90;94.20;;;;;;5008671;28;20727;-71
2021/11/22 05:15:05;;;;;;;33.35;30.55;;;5.90;94.50;;;;;;5009501;28;20313;-71
2021/11/22 05:17:33;;;;;;;35.88;32.38;;;5.90;95.10;;;;;;5008282;28;20284;-71
2021/11/22 05:20:00;;;;;;;33.70;30.75;;;6.00;95.60;;;;;;5009278;28;20795;-71
2021/11/22 05:22:27;;;;;;;33.08;29.92;;;6.00;95.10;;;;;;5008892;28;20312;-71
2021/11/22 05:24:54;;;;;;;36.53;33.25;;;6.00;95.70;;;;;;5009816;28;20625;-71
2021/11/22 05:27:27;;;;;;;33.95;30.95;;;6.00;95.00;;;;;;5007774;28;20280;-71
2021/11/22 05:29:56;;;;;;;253.13;52.75;;;5.90;94.70;;;;;;5009305;28;20772;-71
2021/11/22 05:32:24;;;;;;;33.85;30.75;;;5.90;96.10;;;;;;5006968;28;20321;-71
2021/11/22 05:34:56;;;;;;;32.70;29.70;;;6.00;95.60;;;;;;5006664;28;20648;-70
2021/11/22 05:37:27;;;;;;;50.20;31.38;;;6.10;95.10;;;;;;5008496;28;20229;-70
2021/11/22 05:39:56;;;;;;;55.75;33.15;;;6.00;94.70;;;;;;5009013;28;20220;-73
2021/11/22 05:42:23;;;;;;;163.05;41.97;;;6.00;95.60;;;;;;5008576;28;20311;-71
2021/11/22 05:44:50;;;;;;;32.38;29.58;;;6.00;95.20;;;;;;5001515;28;20218;-71
2021/11/22 05:47:19;;;;;;;32.35;29.55;;;5.90;96.20;;;;;;5006742;28;20222;-71
2021/11/22 05:49:47;;;;;;;30.95;28.30;;;5.90;96.00;;;;;;5009519;28;20281;-71
2021/11/22 05:52:15;;;;;;;46.00;30.30;;;5.90;95.50;;;;;;5006892;28;20202;-72
2021/11/22 05:54:50;;;;;;;58.15;32.20;;;5.90;95.20;;;;;;5008875;28;20479;-71
2021/11/22 05:57:17;;;;;;;31.85;29.15;;;5.90;95.40;;;;;;5008069;28;20193;-72
2021/11/22 05:59:44;;;;;;;244.70;46.38;;;6.00;95.50;;;;;;5009946;28;20297;-71
2021/11/22 06:02:12;;;;;;;30.85;28.25;;;6.00;96.70;;;;;;5007970;28;20312;-72
2021/11/22 06:04:40;;;;;;;32.08;29.30;;;6.00;97.10;;;;;;5008429;28;20308;-70
2021/11/22 06:07:07;;;;;;;31.30;28.50;;;6.10;96.40;;;;;;5006992;28;20727;-71
2021/11/22 06:09:34;;;;;;;30.23;27.73;;;6.10;95.80;;;;;;5009085;28;22230;-72
2021/11/22 06:12:01;;;;;;;33.00;30.40;;;6.20;95.30;;;;;;5007162;28;20226;-71
2021/11/22 06:14:28;;;;;;;43.53;30.25;;;6.10;95.20;;;;;;5008193;28;20296;-73
2021/11/22 06:16:55;;;;;;;30.83;28.15;;;6.10;95.70;;;;;;4998431;28;20226;-71
2021/11/22 06:19:22;;;;;;;33.33;30.48;;;6.20;95.10;;;;;;5008804;28;20210;-73
2021/11/22 06:21:51;;;;;;;31.10;28.50;;;6.30;94.60;;;;;;5007547;28;20269;-73
2021/11/22 06:24:18;;;;;;;30.27;27.67;;;6.40;93.60;;;;;;5008271;28;20276;-72
2021/11/22 06:26:45;;;;;;;29.88;27.17;;;6.30;93.60;;;;;;5007170;28;20412;-72
2021/11/22 06:29:17;;;;;;;31.58;28.63;;;6.10;94.40;;;;;;5009765;28;20241;-72
2021/11/22 06:31:44;;;;;;;27.98;25.38;;;6.00;95.10;;;;;;5006229;28;20194;-73
2021/11/22 06:34:11;;;;;;;30.35;27.88;;;6.10;95.40;;;;;;5007721;28;20257;-72
2021/11/22 06:36:39;;;;;;;27.27;25.02;;;6.00;95.10;;;;;;5007349;28;20289;-71
2021/11/22 06:39:07;;;;;;;30.88;28.38;;;6.00;94.90;;;;;;5001644;28;20210;-71
2021/11/22 06:41:34;;;;;;;30.50;27.92;;;5.80;95.80;;;;;;5006265;28;20293;-71
2021/11/22 06:44:01;;;;;;;30.27;27.67;;;5.90;96.80;;;;;;5001702;28;20225;-71
2021/11/22 06:46:28;;;;;;;30.70;28.20;;;6.00;95.70;;;;;;5000847;28;20288;-71
2021/11/22 06:48:56;;;;;;;29.05;26.65;;;6.10;95.60;;;;;;5005512;28;20222;-70
2021/11/22 06:51:23;;;;;;;27.30;24.80;;;6.00;95.50;;;;;;5005391;28;20234;-70
2021/11/22 06:53:50;;;;;;;28.80;26.38;;;5.90;95.60;;;;;;4998447;28;20301;-71
2021/11/22 06:56:18;;;;;;;30.30;27.73;;;5.90;95.70;;;;;;5008379;28;20285;-70
2021/11/22 06:58:45;;;;;;;31.95;28.05;;;6.00;95.60;;;;;;5008454;28;20234;-70
2021/11/22 07:01:12;;;;;;;28.65;26.08;;;6.00;95.50;;;;;;5007385;28;20237;-69
2021/11/22 07:03:39;;;;;;;29.00;26.60;;;6.00;95.70;;;;;;4996613;28;20700;-70
2021/11/22 07:06:08;;;;;;;27.10;24.90;;;6.10;94.90;;;;;;5007341;28;20224;-71
2021/11/22 07:08:35;;;;;;;28.75;26.10;;;5.90;95.50;;;;;;5005242;28;20568;-70
2021/11/22 07:11:02;;;;;;;27.73;25.63;;;6.00;95.60;;;;;;5007383;28;20289;-70
2021/11/22 07:13:33;;;;;;;27.70;25.50;;;6.00;95.40;;;;;;5006763;28;20221;-70
2021/11/22 07:16:00;;;;;;;27.27;25.08;;;5.90;95.90;;;;;;5008439;28;20205;-70
2021/11/22 07:18:27;;;;;;;28.45;26.05;;;5.80;96.20;;;;;;5004462;28;20209;-72
2021/11/22 07:20:54;;;;;;;27.23;25.02;;;5.90;96.50;;;;;;5009033;28;20741;-70
2021/11/22 07:23:24;;;;;;;28.70;26.55;;;6.00;96.10;;;;;;4995066;28;20218;-71
2021/11/22 07:25:51;;;;;;;29.33;26.98;;;5.90;95.60;;;;;;5007820;28;20218;-71
2021/11/22 07:28:18;;;;;;;28.17;25.23;;;6.00;95.80;;;;;;5007410;28;20241;-71
2021/11/22 07:30:47;;;;;;;28.98;26.52;;;6.00;95.70;;;;;;5007509;28;20281;-71
2021/11/22 07:33:15;;;;;;;24.00;22.00;;;5.90;96.20;;;;;;5004202;28;20850;-71
2021/11/22 07:35:42;;;;;;;26.88;24.67;;;6.00;96.10;;;;;;5008212;28;20321;-71
2021/11/22 07:38:10;;;;;;;25.98;23.88;;;6.10;95.80;;;;;;5002955;28;20236;-72
2021/11/22 07:40:37;;;;;;;25.90;23.63;;;6.10;95.60;;;;;;5009041;28;20354;-71
2021/11/22 07:43:04;;;;;;;27.33;24.92;;;6.10;95.70;;;;;;4995264;28;20221;-72
2021/11/22 07:45:32;;;;;;;26.52;24.13;;;6.10;96.00;;;;;;5000412;28;20252;-71
2021/11/22 07:48:00;;;;;;;27.10;25.10;;;6.20;96.00;;;;;;5002581;28;20194;-72
2021/11/22 07:50:29;;;;;;;29.35;26.85;;;6.10;96.10;;;;;;5007254;28;20289;-72
2021/11/22 07:52:57;;;;;;;27.50;25.10;;;6.20;96.30;;;;;;5004648;28;20210;-72
2021/11/22 07:55:24;;;;;;;27.58;25.27;;;6.20;96.20;;;;;;5007638;28;20285;-71
2021/11/22 07:57:53;;;;;;;27.23;25.02;;;6.20;96.10;;;;;;5009482;28;20297;-71
2021/11/22 08:00:21;;;;;;;28.63;26.23;;;6.20;96.30;;;;;;5010873;28;20281;-73
2021/11/22 08:02:48;;;;;;;27.95;25.60;;;6.20;96.50;;;;;;5008067;28;20272;-71
2021/11/22 08:05:18;;;;;;;28.77;26.48;;;6.20;96.30;;;;;;5011925;28;20198;-71
2021/11/22 08:07:45;;;;;;;28.35;25.73;;;6.10;97.00;;;;;;5007953;28;20722;-72
2021/11/22 08:10:25;;;;;;;24.83;22.75;;;6.30;96.80;;;;;;5009532;28;20281;-71
2021/11/22 08:12:53;;;;;;;26.42;24.02;;;6.20;96.40;;;;;;5007241;28;20268;-71
2021/11/22 08:15:21;;;;;;;25.55;23.65;;;6.20;97.10;;;;;;5008519;28;20419;-71
2021/11/22 08:17:48;;;;;;;26.10;24.10;;;6.20;97.20;;;;;;5009468;28;20280;-70
2021/11/22 08:20:19;;;;;;;26.95;24.92;;;6.20;97.40;;;;;;5009389;28;21043;-71
2021/11/22 08:22:47;;;;;;;24.27;22.27;;;6.20;97.10;;;;;;5008941;28;20313;-72
2021/11/22 08:25:15;;;;;;;24.52;22.83;;;6.20;97.50;;;;;;5010629;28;20575;-71
2021/11/22 08:27:42;;;;;;;23.00;21.40;;;6.30;96.90;;;;;;5008841;28;20272;-72
2021/11/22 08:30:12;;;;;;;21.85;20.23;;;6.30;97.00;;;;;;5011348;28;20303;-71
2021/11/22 08:32:41;;;;;;;25.08;23.17;;;6.30;97.10;;;;;;5008018;28;20819;-71
2021/11/22 08:35:09;;;;;;;23.23;21.42;;;6.30;97.00;;;;;;5007725;28;20209;-71
2021/11/22 08:37:39;;;;;;;23.52;21.70;;;6.30;97.20;;;;;;5008642;28;20196;-71
2021/11/22 08:40:09;;;;;;;23.80;22.10;;;6.30;97.40;;;;;;5006407;28;20293;-71
2021/11/22 08:42:36;;;;;;;22.88;21.20;;;6.30;97.20;;;;;;5008209;28;20738;-71
2021/11/22 08:45:04;;;;;;;21.00;19.40;;;6.30;97.30;;;;;;4992814;28;20290;-71
2021/11/22 08:47:31;;;;;;;24.13;22.42;;;6.50;97.40;;;;;;5008902;28;20312;-71
2021/11/22 08:49:58;;;;;;;23.65;21.95;;;6.50;97.40;;;;;;5010210;28;20252;-72
2021/11/22 08:52:26;;;;;;;22.02;19.88;;;6.50;97.70;;;;;;5007857;28;20195;-72
2021/11/22 08:54:55;;;;;;;22.02;20.38;;;6.60;98.20;;;;;;5009140;28;20225;-71
2021/11/22 08:57:22;;;;;;;25.00;22.98;;;6.70;97.90;;;;;;5008121;28;20289;-71
2021/11/22 08:59:52;;;;;;;22.27;20.50;;;6.70;97.00;;;;;;5008832;28;20281;-71
2021/11/22 09:02:21;;;;;;;23.90;21.88;;;6.50;97.30;;;;;;5005810;28;20228;-70
2021/11/22 09:04:49;;;;;;;25.35;22.00;;;6.50;97.70;;;;;;5008964;28;20266;-69
2021/11/22 09:07:17;;;;;;;23.10;21.25;;;6.50;97.60;;;;;;5000014;28;20206;-70
2021/11/22 09:09:44;;;;;;;22.63;21.00;;;6.50;97.60;;;;;;5008308;28;20198;-71
2021/11/22 09:12:15;;;;;;;23.85;22.10;;;6.50;97.70;;;;;;5008466;28;20744;-71
2021/11/22 09:14:42;;;;;;;24.10;22.30;;;6.50;98.10;;;;;;5009701;28;20237;-70
2021/11/22 09:17:09;;;;;;;24.23;22.52;;;6.60;97.80;;;;;;5006056;28;20289;-71
2021/11/22 09:19:37;;;;;;;22.02;20.27;;;6.70;97.70;;;;;;5009271;28;20256;-71
2021/11/22 09:22:10;;;;;;;23.13;21.33;;;6.80;96.70;;;;;;5006823;28;20241;-71
2021/11/22 09:24:37;;;;;;;22.42;20.70;;;6.80;96.70;;;;;;5006334;28;20221;-70
2021/11/22 09:27:04;;;;;;;24.52;22.65;;;6.70;96.30;;;;;;5008644;28;20214;-70
2021/11/22 09:29:32;;;;;;;25.05;23.20;;;6.80;96.30;;;;;;5010070;28;20686;-71
2021/11/22 09:31:59;;;;;;;23.25;21.55;;;6.70;96.40;;;;;;5000810;28;20281;-71
2021/11/22 09:34:27;;;;;;;84.38;28.20;;;6.80;96.00;;;;;;5007920;28;20301;-71
2021/11/22 09:36:57;;;;;;;23.85;21.80;;;6.80;96.20;;;;;;5008233;28;20194;-72
2021/11/22 09:39:24;;;;;;;24.48;22.02;;;6.90;96.20;;;;;;5008899;28;20198;-71
2021/11/22 09:41:52;;;;;;;24.33;22.42;;;7.00;95.70;;;;;;5007902;28;20198;-72
2021/11/22 09:44:21;;;;;;;23.00;21.30;;;6.90;95.70;;;;;;5007725;28;20232;-71
2021/11/22 09:46:53;;;;;;;22.17;20.58;;;6.90;95.80;;;;;;5006671;28;20281;-71
2021/11/22 09:49:21;;;;;;;24.40;22.58;;;7.00;95.50;;;;;;5008697;28;20233;-71
2021/11/22 09:51:53;;;;;;;24.85;22.88;;;7.10;95.70;;;;;;5005002;28;20230;-71
2021/11/22 09:54:21;;;;;;;38.22;23.30;;;7.10;95.50;;;;;;5008434;28;20224;-71
2021/11/22 09:56:50;;;;;;;23.00;21.25;;;7.10;95.30;;;;;;5002478;28;20660;-71
2021/11/22 09:59:17;;;;;;;24.10;22.40;;;7.00;95.40;;;;;;5008444;28;20198;-71
2021/11/22 10:01:46;;;;;;;24.25;22.45;;;7.10;95.30;;;;;;5007405;28;20201;-71
2021/11/22 10:04:18;;;;;;;23.65;21.92;;;7.10;95.30;;;;;;5007713;28;20225;-71
2021/11/22 10:06:47;;;;;;;23.73;22.02;;;7.10;94.80;;;;;;4995173;28;20575;-70
2021/11/22 10:09:41;;;;;;;24.58;22.33;;;7.20;94.50;;;;;;5007715;28;20198;-72
2021/11/22 10:12:11;;;;;;;22.67;21.05;;;7.20;95.30;;;;;;5005481;28;20216;-70
2021/11/22 10:14:42;;;;;;;22.55;20.95;;;7.20;94.70;;;;;;5008819;28;20261;-72
2021/11/22 10:17:28;;;;;;;25.15;23.27;;;7.20;94.60;;;;;;5007047;28;20234;-72
2021/11/22 10:20:16;;;;;;;23.48;21.50;;;7.30;94.70;;;;;;5007335;28;20202;-72
2021/11/22 10:22:46;;;;;;;23.25;21.67;;;7.50;94.30;;;;;;5004421;28;20380;-72
2021/11/22 10:25:30;;;;;;;26.80;24.13;;;7.70;93.80;;;;;;5008538;28;20202;-72
2021/11/22 10:28:15;;;;;;;64.47;26.42;;;7.60;93.70;;;;;;5099530;27;20984;-75
2021/11/22 10:30:44;;;;;;;24.98;23.13;;;7.70;93.50;;;;;;5091557;28;20218;-72
2021/11/22 10:33:14;;;;;;;24.30;22.75;;;7.80;93.00;;;;;;5084483;28;20276;-72
2021/11/22 10:35:42;;;;;;;26.20;24.40;;;7.90;92.20;;;;;;5090716;28;20609;-72
2021/11/22 10:38:14;;;;;;;25.45;23.55;;;7.90;92.30;;;;;;5087993;28;20771;-71
2021/11/22 10:40:44;;;;;;;24.75;23.08;;;7.90;92.10;;;;;;5088163;28;20226;-72
2021/11/22 10:43:13;;;;;;;24.98;23.13;;;7.90;91.70;;;;;;5093209;28;20281;-71
2021/11/22 10:45:45;;;;;;;24.45;22.55;;;7.90;92.00;;;;;;5094305;28;20206;-72
2021/11/22 10:48:20;;;;;;;25.98;24.27;;;7.90;92.00;;;;;;5087693;28;20581;-72
2021/11/22 10:50:52;;;;;;;26.67;24.67;;;8.10;91.50;;;;;;5085054;28;20205;-72
2021/11/22 10:53:33;;;;;;;23.77;21.98;;;8.20;90.80;;;;;;5096045;28;20211;-71
2021/11/22 10:56:02;;;;;;;23.67;21.85;;;8.20;90.90;;;;;;5083809;28;20282;-72
2021/11/22 10:58:40;;;;;;;25.98;24.17;;;7.90;90.60;;;;;;5085911;28;20687;-72
2021/11/22 11:01:32;;;;;;;25.20;23.20;;;7.80;91.40;;;;;;5085968;28;20227;-72
2021/11/22 11:04:07;;;;;;;24.40;22.73;;;7.90;91.10;;;;;;5086761;28;20216;-71
2021/11/22 11:06:36;;;;;;;24.83;22.98;;;7.80;90.70;;;;;;5084119;28;20226;-72
2021/11/22 11:09:04;;;;;;;25.40;23.50;;;7.60;91.40;;;;;;5084451;28;20233;-72
2021/11/22 11:11:31;;;;;;;25.27;23.27;;;7.50;92.10;;;;;;5083778;28;20203;-72
2021/11/22 11:14:06;;;;;;;23.60;21.95;;;7.50;92.60;;;;;;5086164;28;20297;-71
2021/11/22 11:16:33;;;;;;;22.92;21.27;;;7.60;92.70;;;;;;5092319;28;20282;-71
2021/11/22 11:19:03;;;;;;;23.80;21.75;;;7.60;92.60;;;;;;5093662;28;20209;-70
2021/11/22 11:21:33;;;;;;;23.50;21.58;;;7.70;92.10;;;;;;5093702;28;20580;-70
2021/11/22 11:24:03;;;;;;;21.60;19.90;;;7.80;92.30;;;;;;5083267;28;20782;-71
2021/11/22 11:26:30;;;;;;;24.02;22.08;;;7.80;91.40;;;;;;5090255;28;20305;-70
2021/11/22 11:29:00;;;;;;;24.23;22.38;;;7.70;92.20;;;;;;5089174;28;20730;-70
2021/11/22 11:31:37;;;;;;;23.20;21.30;;;7.70;92.20;;;;;;5089454;28;20211;-71
2021/11/22 11:34:07;;;;;;;25.17;22.92;;;7.80;92.30;;;;;;5097008;28;20643;-70
2021/11/22 11:37:01;;;;;;;24.08;22.10;;;7.80;91.90;;;;;;5094149;28;20219;-70
2021/11/22 11:40:03;;;;;;;22.70;20.85;;;7.80;91.90;;;;;;5074853;28;20736;-72
2021/11/22 11:42:54;;;;;;;22.13;20.52;;;7.80;91.70;;;;;;5071215;28;20203;-70
2021/11/22 11:45:30;;;;;;;21.92;20.52;;;7.80;91.80;;;;;;5064744;28;20389;-70
2021/11/22 11:48:07;;;;;;;22.73;21.13;;;7.70;92.00;;;;;;5069524;28;20215;-70
2021/11/22 11:50:38;;;;;;;24.00;22.33;;;7.60;91.40;;;;;;5070222;28;20643;-70
2021/11/22 11:53:07;;;;;;;21.67;20.17;;;7.60;92.10;;;;;;5073078;28;20226;-70
2021/11/22 11:55:35;;;;;;;21.25;19.55;;;7.70;91.90;;;;;;5070397;28;20200;-70
2021/11/22 11:58:19;;;;;;;22.38;20.80;;;7.70;91.80;;;;;;5073167;28;20227;-71
2021/11/22 12:00:57;;;;;;;21.85;19.88;;;7.60;91.50;;;;;;5071186;28;20753;-71
2021/11/22 12:03:25;;;;;;;23.10;20.75;;;7.70;91.20;;;;;;5070100;28;20683;-71
2021/11/22 12:05:54;;;;;;;23.20;21.52;;;7.80;89.50;;;;;;5071874;28;20282;-71
2021/11/22 12:08:25;;;;;;;22.40;20.58;;;7.80;89.70;;;;;;5079702;28;20216;-71
2021/11/22 12:10:53;;;;;;;23.15;21.65;;;7.70;89.40;;;;;;5084324;28;20234;-70
2021/11/22 12:13:20;;;;;;;23.25;21.35;;;7.70;89.60;;;;;;5070320;28;20216;-70
2021/11/22 12:15:54;;;;;;;22.90;21.17;;;7.80;89.40;;;;;;5071887;28;21235;-70
2021/11/22 12:18:27;;;;;;;24.00;22.13;;;7.80;88.80;;;;;;5071315;28;20219;-70
2021/11/22 12:20:56;;;;;;;24.27;22.77;;;7.70;89.60;;;;;;5069616;28;20788;-70
2021/11/22 12:23:28;;;;;;;22.20;20.55;;;7.70;88.80;;;;;;5085012;28;20253;-70
2021/11/22 12:25:58;;;;;;;23.50;21.83;;;7.70;89.10;;;;;;5081003;28;20205;-70
2021/11/22 12:28:52;;;;;;;21.05;19.70;;;7.80;88.30;;;;;;5082538;28;20313;-71
2021/11/22 12:31:25;;;;;;;22.65;21.08;;;7.80;88.60;;;;;;5071941;28;20217;-71
2021/11/22 12:33:58;;;;;;;21.50;20.10;;;7.80;88.50;;;;;;5070916;28;20227;-72
2021/11/22 12:36:45;;;;;;;22.85;21.40;;;7.70;88.30;;;;;;5083810;28;20278;-73
2021/11/22 12:39:19;;;;;;;22.42;20.75;;;7.50;88.50;;;;;;5076884;28;20293;-74
2021/11/22 12:41:51;;;;;;;23.40;21.75;;;7.50;88.90;;;;;;5075994;28;20222;-70
2021/11/22 12:44:20;;;;;;;23.23;21.73;;;7.60;88.70;;;;;;5071677;28;20215;-71
2021/11/22 12:46:53;;;;;;;22.17;20.88;;;7.60;88.90;;;;;;5073991;28;20207;-71